Virtual Norwegian is not affiliated with Norwegian Air Shuttle in any way.
If you are looking for the real "Norwegian", or you wish to book Norwegian flights, please visit Norwegian.com


We use cookies to ensure you get the best experience on our website.   ACCEPT

LGKO - KGS - Kos (Kos)

General Info Alternate Airport
ICAO: LGKO Elevation: 412 ft ICAO: LGRP
IATA: KGS Country: Greece IATA: RHO
City: Kos Charts: Log in to view charts City: Rhodos
Name: Kos Hub: No Name Rhodes Diagoras
General Info
ICAO: LGKO
IATA: KGS
City: Kos
Name: Kos
Elevation: 412 ft
Country: Greece
Charts: Log in to view charts
Hub: No
 
Alternate Airport
ICAO: LGRP
IATA: RHO
City: Rhodos
Name: Rhodes Diagoras

Weather
201220Z 14011KT CAVOK 24/16 Q1015
Weather
201220Z 14011KT CAVOK 24/16 Q1015

Runway Info
14
Length ILS/LOC Heading
2390 m N/A 148
32
Length ILS/LOC Heading
2390 m N/A 328

NOTAMs
NOTAMs currently unavailable.
NOTAMs
NOTAMs currently unavailable

Route map
Airport
Airport (hub)